sensor_id;sensor_type;location;lat;lon;timestamp;temperature;humidity
19847;DHT22;10084;50.518;8.588;2023-04-03T00:36:34;5.80;97.30
19847;DHT22;10084;50.518;8.588;2023-04-03T00:39:00;5.80;97.00
19847;DHT22;10084;50.518;8.588;2023-04-03T00:41:26;5.80;96.40
19847;DHT22;10084;50.518;8.588;2023-04-03T00:43:54;5.80;96.20
19847;DHT22;10084;50.518;8.588;2023-04-03T00:46:20;5.80;96.00
19847;DHT22;10084;50.518;8.588;2023-04-03T00:48:47;5.80;95.80
19847;DHT22;10084;50.518;8.588;2023-04-03T00:51:20;5.80;95.60
19847;DHT22;10084;50.518;8.588;2023-04-03T00:54:09;5.80;95.50
19847;DHT22;10084;50.518;8.588;2023-04-03T00:56:36;5.80;95.20
19847;DHT22;10084;50.518;8.588;2023-04-03T00:59:09;5.80;95.10
19847;DHT22;10084;50.518;8.588;2023-04-03T01:01:37;5.80;95.00
19847;DHT22;10084;50.518;8.588;2023-04-03T01:04:05;5.80;95.10
19847;DHT22;10084;50.518;8.588;2023-04-03T01:06:35;5.80;94.90
19847;DHT22;10084;50.518;8.588;2023-04-03T01:09:06;5.90;94.90
19847;DHT22;10084;50.518;8.588;2023-04-03T01:11:32;5.80;94.80
19847;DHT22;10084;50.518;8.588;2023-04-03T01:14:00;5.90;94.80
19847;DHT22;10084;50.518;8.588;2023-04-03T01:16:27;5.90;94.70
19847;DHT22;10084;50.518;8.588;2023-04-03T01:18:59;5.90;94.60
19847;DHT22;10084;50.518;8.588;2023-04-03T01:24:37;5.90;94.40
19847;DHT22;10084;50.518;8.588;2023-04-03T01:27:09;6.00;94.40
19847;DHT22;10084;50.518;8.588;2023-04-03T01:29:37;5.90;94.30
19847;DHT22;10084;50.518;8.588;2023-04-03T01:32:03;6.00;94.20
19847;DHT22;10084;50.518;8.588;2023-04-03T01:34:30;6.00;94.10
19847;DHT22;10084;50.518;8.588;2023-04-03T01:36:56;6.00;94.00
19847;DHT22;10084;50.518;8.588;2023-04-03T01:39:23;6.00;94.00
19847;DHT22;10084;50.518;8.588;2023-04-03T01:41:49;5.90;93.90
19847;DHT22;10084;50.518;8.588;2023-04-03T01:44:22;5.90;93.80
19847;DHT22;10084;50.518;8.588;2023-04-03T01:46:48;5.90;93.80
19847;DHT22;10084;50.518;8.588;2023-04-03T01:49:14;5.90;93.70
19847;DHT22;10084;50.518;8.588;2023-04-03T01:51:40;5.90;93.70
19847;DHT22;10084;50.518;8.588;2023-04-03T01:54:06;5.80;93.70
19847;DHT22;10084;50.518;8.588;2023-04-03T01:56:31;5.80;93.50
19847;DHT22;10084;50.518;8.588;2023-04-03T01:58:58;5.90;93.50
19847;DHT22;10084;50.518;8.588;2023-04-03T02:01:24;5.80;93.40
19847;DHT22;10084;50.518;8.588;2023-04-03T02:03:51;5.80;93.30
19847;DHT22;10084;50.518;8.588;2023-04-03T02:06:17;5.80;93.20
19847;DHT22;10084;50.518;8.588;2023-04-03T02:08:42;5.80;92.90
19847;DHT22;10084;50.518;8.588;2023-04-03T02:11:08;5.70;92.80
19847;DHT22;10084;50.518;8.588;2023-04-03T02:13:34;5.70;92.60
19847;DHT22;10084;50.518;8.588;2023-04-03T02:16:07;5.60;92.30
19847;DHT22;10084;50.518;8.588;2023-04-03T02:18:32;5.60;92.10
19847;DHT22;10084;50.518;8.588;2023-04-03T02:20:58;5.50;91.90
19847;DHT22;10084;50.518;8.588;2023-04-03T02:23:25;5.50;91.70
19847;DHT22;10084;50.518;8.588;2023-04-03T02:25:51;5.40;90.40
19847;DHT22;10084;50.518;8.588;2023-04-03T02:28:17;5.30;88.50
19847;DHT22;10084;50.518;8.588;2023-04-03T02:30:43;5.30;88.40
19847;DHT22;10084;50.518;8.588;2023-04-03T02:33:10;5.20;88.90
19847;DHT22;10084;50.518;8.588;2023-04-03T02:35:36;5.20;89.20
19847;DHT22;10084;50.518;8.588;2023-04-03T02:38:02;5.10;89.70
19847;DHT22;10084;50.518;8.588;2023-04-03T02:40:28;5.10;90.10
19847;DHT22;10084;50.518;8.588;2023-04-03T02:42:54;5.00;90.10
19847;DHT22;10084;50.518;8.588;2023-04-03T02:45:21;5.00;91.30
19847;DHT22;10084;50.518;8.588;2023-04-03T02:47:47;5.00;95.70
19847;DHT22;10084;50.518;8.588;2023-04-03T02:50:13;4.90;95.60
19847;DHT22;10084;50.518;8.588;2023-04-03T02:55:06;4.80;94.90
19847;DHT22;10084;50.518;8.588;2023-04-03T02:57:32;4.80;95.30
19847;DHT22;10084;50.518;8.588;2023-04-03T02:59:58;4.70;96.20
19847;DHT22;10084;50.518;8.588;2023-04-03T03:02:23;4.70;96.20
19847;DHT22;10084;50.518;8.588;2023-04-03T03:04:49;4.70;96.00
19847;DHT22;10084;50.518;8.588;2023-04-03T03:07:15;4.60;94.00
19847;DHT22;10084;50.518;8.588;2023-04-03T03:09:41;4.60;92.80
19847;DHT22;10084;50.518;8.588;2023-04-03T03:12:07;4.60;92.00
19847;DHT22;10084;50.518;8.588;2023-04-03T03:14:33;4.60;91.60
19847;DHT22;10084;50.518;8.588;2023-04-03T03:16:59;4.50;91.40
19847;DHT22;10084;50.518;8.588;2023-04-03T03:19:25;4.50;91.10
19847;DHT22;10084;50.518;8.588;2023-04-03T03:21:51;4.40;91.60
19847;DHT22;10084;50.518;8.588;2023-04-03T03:24:17;4.30;92.00
19847;DHT22;10084;50.518;8.588;2023-04-03T03:26:43;4.30;93.90
19847;DHT22;10084;50.518;8.588;2023-04-03T03:43:57;3.50;99.90
19847;DHT22;10084;50.518;8.588;2023-04-03T03:48:49;3.40;77.80
19847;DHT22;10084;50.518;8.588;2023-04-03T03:51:16;3.30;72.50
19847;DHT22;10084;50.518;8.588;2023-04-03T03:53:42;3.20;72.50
19847;DHT22;10084;50.518;8.588;2023-04-03T03:56:12;3.20;72.60
19847;DHT22;10084;50.518;8.588;2023-04-03T03:58:39;3.10;72.60
19847;DHT22;10084;50.518;8.588;2023-04-03T04:01:06;3.10;72.70
19847;DHT22;10084;50.518;8.588;2023-04-03T04:03:34;3.00;72.70
19847;DHT22;10084;50.518;8.588;2023-04-03T04:06:01;3.00;72.90
19847;DHT22;10084;50.518;8.588;2023-04-03T04:08:27;2.90;73.40
19847;DHT22;10084;50.518;8.588;2023-04-03T04:10:53;2.90;73.50
19847;DHT22;10084;50.518;8.588;2023-04-03T04:13:19;2.80;72.80
19847;DHT22;10084;50.518;8.588;2023-04-03T04:15:45;2.80;72.80
19847;DHT22;10084;50.518;8.588;2023-04-03T04:18:12;2.70;73.20
19847;DHT22;10084;50.518;8.588;2023-04-03T04:20:41;2.70;79.80
19847;DHT22;10084;50.518;8.588;2023-04-03T04:23:07;2.70;78.60
19847;DHT22;10084;50.518;8.588;2023-04-03T04:25:33;2.70;78.10
19847;DHT22;10084;50.518;8.588;2023-04-03T04:27:59;2.60;78.60
19847;DHT22;10084;50.518;8.588;2023-04-03T04:30:25;2.60;79.20
19847;DHT22;10084;50.518;8.588;2023-04-03T04:32:53;2.60;80.10
19847;DHT22;10084;50.518;8.588;2023-04-03T04:35:20;2.60;80.50
19847;DHT22;10084;50.518;8.588;2023-04-03T04:37:48;2.50;80.90
19847;DHT22;10084;50.518;8.588;2023-04-03T04:40:15;2.50;81.60
19847;DHT22;10084;50.518;8.588;2023-04-03T04:42:41;2.40;82.30
19847;DHT22;10084;50.518;8.588;2023-04-03T04:45:07;2.40;83.20
19847;DHT22;10084;50.518;8.588;2023-04-03T04:47:33;2.40;83.80
19847;DHT22;10084;50.518;8.588;2023-04-03T04:49:59;2.40;84.50
19847;DHT22;10084;50.518;8.588;2023-04-03T04:52:26;2.30;85.80
19847;DHT22;10084;50.518;8.588;2023-04-03T04:54:52;2.30;86.90
19847;DHT22;10084;50.518;8.588;2023-04-03T04:57:18;2.30;88.70
19847;DHT22;10084;50.518;8.588;2023-04-03T04:59:44;2.30;90.00
19847;DHT22;10084;50.518;8.588;2023-04-03T05:02:10;2.30;90.70
19847;DHT22;10084;50.518;8.588;2023-04-03T05:04:38;2.20;91.60
19847;DHT22;10084;50.518;8.588;2023-04-03T05:07:09;2.20;92.70
19847;DHT22;10084;50.518;8.588;2023-04-03T05:09:36;2.20;93.80
19847;DHT22;10084;50.518;8.588;2023-04-03T05:12:02;2.20;95.00
19847;DHT22;10084;50.518;8.588;2023-04-03T05:14:34;2.20;95.90
19847;DHT22;10084;50.518;8.588;2023-04-03T05:17:04;2.30;96.30
19847;DHT22;10084;50.518;8.588;2023-04-03T05:19:33;2.40;96.40
19847;DHT22;10084;50.518;8.588;2023-04-03T05:22:00;2.50;96.50
19847;DHT22;10084;50.518;8.588;2023-04-03T05:24:25;2.60;96.10
19847;DHT22;10084;50.518;8.588;2023-04-03T05:26:51;2.80;96.00
19847;DHT22;10084;50.518;8.588;2023-04-03T05:29:17;3.00;93.10
19847;DHT22;10084;50.518;8.588;2023-04-03T05:31:44;3.20;93.90
19847;DHT22;10084;50.518;8.588;2023-04-03T05:34:12;3.50;92.80
19847;DHT22;10084;50.518;8.588;2023-04-03T05:36:39;3.80;91.80
19847;DHT22;10084;50.518;8.588;2023-04-03T05:39:07;4.10;92.30
19847;DHT22;10084;50.518;8.588;2023-04-03T05:41:36;4.40;92.50
19847;DHT22;10084;50.518;8.588;2023-04-03T05:44:02;4.70;92.90
19847;DHT22;10084;50.518;8.588;2023-04-03T05:46:28;5.00;87.60
19847;DHT22;10084;50.518;8.588;2023-04-03T05:48:56;5.40;86.30
19847;DHT22;10084;50.518;8.588;2023-04-03T05:51:29;5.70;87.60
19847;DHT22;10084;50.518;8.588;2023-04-03T05:54:06;6.10;92.90
19847;DHT22;10084;50.518;8.588;2023-04-03T05:56:32;6.40;92.70
19847;DHT22;10084;50.518;8.588;2023-04-03T05:58:58;6.80;93.00
19847;DHT22;10084;50.518;8.588;2023-04-03T06:01:25;7.10;93.50
19847;DHT22;10084;50.518;8.588;2023-04-03T06:03:52;7.40;91.90
19847;DHT22;10084;50.518;8.588;2023-04-03T06:06:18;7.80;91.90
19847;DHT22;10084;50.518;8.588;2023-04-03T06:08:43;8.00;82.80
19847;DHT22;10084;50.518;8.588;2023-04-03T06:11:11;8.20;83.10
19847;DHT22;10084;50.518;8.588;2023-04-03T06:13:36;8.40;83.10
19847;DHT22;10084;50.518;8.588;2023-04-03T06:16:02;8.60;83.00
19847;DHT22;10084;50.518;8.588;2023-04-03T06:18:29;8.70;82.90
19847;DHT22;10084;50.518;8.588;2023-04-03T06:20:55;8.90;82.80
19847;DHT22;10084;50.518;8.588;2023-04-03T06:23:21;9.00;82.00
19847;DHT22;10084;50.518;8.588;2023-04-03T06:25:46;9.00;81.40
19847;DHT22;10084;50.518;8.588;2023-04-03T06:28:13;9.10;81.00
19847;DHT22;10084;50.518;8.588;2023-04-03T06:30:38;9.10;80.20
19847;DHT22;10084;50.518;8.588;2023-04-03T06:33:04;9.10;79.80
19847;DHT22;10084;50.518;8.588;2023-04-03T06:35:30;9.20;79.50
19847;DHT22;10084;50.518;8.588;2023-04-03T06:37:56;9.30;79.20
19847;DHT22;10084;50.518;8.588;2023-04-03T06:40:23;9.40;78.90
19847;DHT22;10084;50.518;8.588;2023-04-03T06:42:50;9.40;78.00
19847;DHT22;10084;50.518;8.588;2023-04-03T06:45:18;9.50;77.80
19847;DHT22;10084;50.518;8.588;2023-04-03T06:47:44;9.50;77.10
19847;DHT22;10084;50.518;8.588;2023-04-03T06:50:11;9.50;77.60
19847;DHT22;10084;50.518;8.588;2023-04-03T06:52:40;9.50;76.90
19847;DHT22;10084;50.518;8.588;2023-04-03T06:55:06;9.60;76.90
19847;DHT22;10084;50.518;8.588;2023-04-03T06:57:32;9.60;76.60
19847;DHT22;10084;50.518;8.588;2023-04-03T06:59:57;9.50;76.30
19847;DHT22;10084;50.518;8.588;2023-04-03T07:02:23;9.40;76.00
19847;DHT22;10084;50.518;8.588;2023-04-03T07:04:49;9.40;76.40
19847;DHT22;10084;50.518;8.588;2023-04-03T07:07:15;9.40;76.20
19847;DHT22;10084;50.518;8.588;2023-04-03T07:09:41;9.50;75.70
19847;DHT22;10084;50.518;8.588;2023-04-03T07:12:08;9.50;75.70
19847;DHT22;10084;50.518;8.588;2023-04-03T07:14:34;9.60;75.60
19847;DHT22;10084;50.518;8.588;2023-04-03T07:16:59;9.80;76.20
19847;DHT22;10084;50.518;8.588;2023-04-03T07:19:25;10.10;78.60
19847;DHT22;10084;50.518;8.588;2023-04-03T07:21:53;10.10;79.00
19847;DHT22;10084;50.518;8.588;2023-04-03T07:24:20;10.70;73.60
19847;DHT22;10084;50.518;8.588;2023-04-03T09:48:59;21.80;55.80
19847;DHT22;10084;50.518;8.588;2023-04-03T09:51:26;21.80;56.00
19847;DHT22;10084;50.518;8.588;2023-04-03T09:53:53;22.60;53.80
19847;DHT22;10084;50.518;8.588;2023-04-03T09:56:26;22.10;52.90
19847;DHT22;10084;50.518;8.588;2023-04-03T10:01:36;22.00;54.70
19847;DHT22;10084;50.518;8.588;2023-04-03T10:06:40;23.60;59.40
19847;DHT22;10084;50.518;8.588;2023-04-03T10:09:26;23.30;56.30
19847;DHT22;10084;50.518;8.588;2023-04-03T10:14:33;21.20;49.10
19847;DHT22;10084;50.518;8.588;2023-04-03T10:31:16;18.50;55.70
19847;DHT22;10084;50.518;8.588;2023-04-03T10:54:38;18.70;58.90
19847;DHT22;10084;50.518;8.588;2023-04-03T10:57:08;18.80;60.40
19847;DHT22;10084;50.518;8.588;2023-04-03T11:04:39;19.80;57.20
19847;DHT22;10084;50.518;8.588;2023-04-03T11:07:21;19.80;55.00
19847;DHT22;10084;50.518;8.588;2023-04-03T11:09:52;19.10;57.50
19847;DHT22;10084;50.518;8.588;2023-04-03T11:15:30;18.40;60.50
19847;DHT22;10084;50.518;8.588;2023-04-03T11:25:36;19.80;59.50
19847;DHT22;10084;50.518;8.588;2023-04-03T11:43:25;22.90;55.80
19847;DHT22;10084;50.518;8.588;2023-04-03T11:53:41;20.40;51.70
19847;DHT22;10084;50.518;8.588;2023-04-03T12:22:17;22.70;53.30
19847;DHT22;10084;50.518;8.588;2023-04-03T12:27:38;22.10;49.10
19847;DHT22;10084;50.518;8.588;2023-04-03T12:35:30;22.80;51.20
19847;DHT22;10084;50.518;8.588;2023-04-03T12:40:43;20.40;54.10
19847;DHT22;10084;50.518;8.588;2023-04-03T12:46:23;19.90;56.80
19847;DHT22;10084;50.518;8.588;2023-04-03T12:48:51;20.30;44.00
19847;DHT22;10084;50.518;8.588;2023-04-03T12:54:03;21.10;38.40
19847;DHT22;10084;50.518;8.588;2023-04-03T12:56:31;20.70;36.60
19847;DHT22;10084;50.518;8.588;2023-04-03T12:59:19;20.50;34.80
19847;DHT22;10084;50.518;8.588;2023-04-03T13:04:19;20.10;55.30
19847;DHT22;10084;50.518;8.588;2023-04-03T13:11:51;17.20;70.10
19847;DHT22;10084;50.518;8.588;2023-04-03T13:14:22;15.70;55.80
19847;DHT22;10084;50.518;8.588;2023-04-03T13:21:58;13.90;44.10
19847;DHT22;10084;50.518;8.588;2023-04-03T13:24:25;13.10;43.30
19847;DHT22;10084;50.518;8.588;2023-04-03T13:26:51;12.70;47.50
19847;DHT22;10084;50.518;8.588;2023-04-03T13:29:28;12.30;42.30
19847;DHT22;10084;50.518;8.588;2023-04-03T13:31:55;12.10;41.40
19847;DHT22;10084;50.518;8.588;2023-04-03T13:34:24;12.10;41.70
19847;DHT22;10084;50.518;8.588;2023-04-03T13:41:48;12.20;42.10
19847;DHT22;10084;50.518;8.588;2023-04-03T13:46:49;11.60;40.50
19847;DHT22;10084;50.518;8.588;2023-04-03T13:49:35;11.40;44.40
19847;DHT22;10084;50.518;8.588;2023-04-03T13:52:31;11.20;40.80
19847;DHT22;10084;50.518;8.588;2023-04-03T13:55:24;10.90;38.70
19847;DHT22;10084;50.518;8.588;2023-04-03T14:01:01;10.50;39.70
19847;DHT22;10084;50.518;8.588;2023-04-03T14:03:40;10.50;41.90
19847;DHT22;10084;50.518;8.588;2023-04-03T14:06:10;10.20;42.40
19847;DHT22;10084;50.518;8.588;2023-04-03T14:08:36;10.00;42.40
19847;DHT22;10084;50.518;8.588;2023-04-03T14:11:02;9.80;44.30
19847;DHT22;10084;50.518;8.588;2023-04-03T14:13:30;9.60;44.20
19847;DHT22;10084;50.518;8.588;2023-04-03T14:15:56;9.50;45.10
19847;DHT22;10084;50.518;8.588;2023-04-03T14:18:22;9.40;48.20
19847;DHT22;10084;50.518;8.588;2023-04-03T14:20:49;9.30;49.20
19847;DHT22;10084;50.518;8.588;2023-04-03T14:23:15;9.20;46.00
19847;DHT22;10084;50.518;8.588;2023-04-03T14:25:42;9.20;45.80
19847;DHT22;10084;50.518;8.588;2023-04-03T14:28:17;9.10;45.70
19847;DHT22;10084;50.518;8.588;2023-04-03T14:30:44;9.00;45.90
19847;DHT22;10084;50.518;8.588;2023-04-03T14:33:15;8.90;47.10
19847;DHT22;10084;50.518;8.588;2023-04-03T14:35:42;8.80;45.00
19847;DHT22;10084;50.518;8.588;2023-04-03T14:38:21;8.70;44.60
19847;DHT22;10084;50.518;8.588;2023-04-03T14:40:47;8.70;45.20
19847;DHT22;10084;50.518;8.588;2023-04-03T14:43:13;9.10;46.60
19847;DHT22;10084;50.518;8.588;2023-04-03T14:45:39;9.00;46.20
19847;DHT22;10084;50.518;8.588;2023-04-03T14:48:06;9.30;46.40
19847;DHT22;10084;50.518;8.588;2023-04-03T14:50:34;9.50;46.30
19847;DHT22;10084;50.518;8.588;2023-04-03T14:53:00;9.60;47.50
19847;DHT22;10084;50.518;8.588;2023-04-03T14:55:26;9.70;45.70
19847;DHT22;10084;50.518;8.588;2023-04-03T14:57:53;9.80;47.60
19847;DHT22;10084;50.518;8.588;2023-04-03T15:00:21;9.70;47.80
19847;DHT22;10084;50.518;8.588;2023-04-03T15:02:47;9.60;43.90
19847;DHT22;10084;50.518;8.588;2023-04-03T15:05:14;9.60;43.50
19847;DHT22;10084;50.518;8.588;2023-04-03T15:07:47;9.60;43.20
19847;DHT22;10084;50.518;8.588;2023-04-03T15:10:16;9.50;43.20
19847;DHT22;10084;50.518;8.588;2023-04-03T15:12:43;9.30;43.50
19847;DHT22;10084;50.518;8.588;2023-04-03T15:15:10;9.20;43.80
19847;DHT22;10084;50.518;8.588;2023-04-03T15:17:36;9.20;44.00
19847;DHT22;10084;50.518;8.588;2023-04-03T15:20:03;9.10;44.50
19847;DHT22;10084;50.518;8.588;2023-04-03T15:22:29;9.00;44.90
19847;DHT22;10084;50.518;8.588;2023-04-03T15:24:54;8.80;45.30
19847;DHT22;10084;50.518;8.588;2023-04-03T15:27:20;8.70;45.70
19847;DHT22;10084;50.518;8.588;2023-04-03T15:29:46;8.60;46.70
19847;DHT22;10084;50.518;8.588;2023-04-03T15:32:12;8.60;49.90
19847;DHT22;10084;50.518;8.588;2023-04-03T15:34:38;8.50;47.80
19847;DHT22;10084;50.518;8.588;2023-04-03T15:37:05;8.50;49.40
19847;DHT22;10084;50.518;8.588;2023-04-03T15:39:31;8.50;50.30
19847;DHT22;10084;50.518;8.588;2023-04-03T15:41:57;8.30;45.70
19847;DHT22;10084;50.518;8.588;2023-04-03T15:44:29;8.50;46.00
19847;DHT22;10084;50.518;8.588;2023-04-03T15:46:54;8.40;46.10
19847;DHT22;10084;50.518;8.588;2023-04-03T15:49:21;8.30;46.40
19847;DHT22;10084;50.518;8.588;2023-04-03T15:51:47;8.30;47.00
19847;DHT22;10084;50.518;8.588;2023-04-03T15:54:13;8.20;47.60
19847;DHT22;10084;50.518;8.588;2023-04-03T15:56:39;8.10;48.40
19847;DHT22;10084;50.518;8.588;2023-04-03T15:59:04;8.10;50.00
19847;DHT22;10084;50.518;8.588;2023-04-03T16:01:31;8.00;47.50
19847;DHT22;10084;50.518;8.588;2023-04-03T16:03:57;8.00;47.90
19847;DHT22;10084;50.518;8.588;2023-04-03T16:06:24;7.90;48.00
19847;DHT22;10084;50.518;8.588;2023-04-03T16:08:50;7.90;48.20
19847;DHT22;10084;50.518;8.588;2023-04-03T16:11:16;7.80;48.50
19847;DHT22;10084;50.518;8.588;2023-04-03T16:13:42;7.80;48.70
19847;DHT22;10084;50.518;8.588;2023-04-03T16:16:08;7.80;49.40
19847;DHT22;10084;50.518;8.588;2023-04-03T16:18:35;7.80;49.70
19847;DHT22;10084;50.518;8.588;2023-04-03T16:21:01;7.80;50.10
19847;DHT22;10084;50.518;8.588;2023-04-03T16:23:27;7.80;49.30
19847;DHT22;10084;50.518;8.588;2023-04-03T16:25:53;7.80;48.10
19847;DHT22;10084;50.518;8.588;2023-04-03T16:28:19;7.80;48.60
19847;DHT22;10084;50.518;8.588;2023-04-03T16:30:46;7.70;49.50
19847;DHT22;10084;50.518;8.588;2023-04-03T16:33:13;7.70;51.60
19847;DHT22;10084;50.518;8.588;2023-04-03T16:35:39;7.60;51.60
19847;DHT22;10084;50.518;8.588;2023-04-03T16:38:05;7.50;52.40
19847;DHT22;10084;50.518;8.588;2023-04-03T16:40:31;7.40;50.70
19847;DHT22;10084;50.518;8.588;2023-04-03T16:43:00;7.40;49.50
19847;DHT22;10084;50.518;8.588;2023-04-03T16:45:25;7.30;49.80
19847;DHT22;10084;50.518;8.588;2023-04-03T16:47:51;7.30;50.90
19847;DHT22;10084;50.518;8.588;2023-04-03T16:52:45;7.00;46.20
19847;DHT22;10084;50.518;8.588;2023-04-03T16:55:12;6.90;46.80
19847;DHT22;10084;50.518;8.588;2023-04-03T16:57:38;6.80;46.90
19847;DHT22;10084;50.518;8.588;2023-04-03T17:00:04;6.80;47.00
19847;DHT22;10084;50.518;8.588;2023-04-03T17:02:31;6.80;47.10
19847;DHT22;10084;50.518;8.588;2023-04-03T17:04:57;6.80;47.20
19847;DHT22;10084;50.518;8.588;2023-04-03T17:07:24;6.80;47.30
19847;DHT22;10084;50.518;8.588;2023-04-03T17:09:51;6.80;47.40
19847;DHT22;10084;50.518;8.588;2023-04-03T17:12:19;6.90;47.60
19847;DHT22;10084;50.518;8.588;2023-04-03T17:14:45;6.90;47.70
19847;DHT22;10084;50.518;8.588;2023-04-03T17:17:18;7.00;47.90
19847;DHT22;10084;50.518;8.588;2023-04-03T17:19:45;7.00;47.90
19847;DHT22;10084;50.518;8.588;2023-04-03T17:22:11;7.00;47.90
19847;DHT22;10084;50.518;8.588;2023-04-03T17:24:37;6.90;48.10
19847;DHT22;10084;50.518;8.588;2023-04-03T17:27:03;6.80;48.50
19847;DHT22;10084;50.518;8.588;2023-04-03T17:29:29;6.70;48.80
19847;DHT22;10084;50.518;8.588;2023-04-03T17:31:54;6.60;49.10
19847;DHT22;10084;50.518;8.588;2023-04-03T17:34:20;6.50;50.00
19847;DHT22;10084;50.518;8.588;2023-04-03T17:36:46;6.40;52.20
19847;DHT22;10084;50.518;8.588;2023-04-03T17:39:12;6.30;52.50
19847;DHT22;10084;50.518;8.588;2023-04-03T17:41:38;6.20;52.90
19847;DHT22;10084;50.518;8.588;2023-04-03T17:44:04;6.10;53.50
19847;DHT22;10084;50.518;8.588;2023-04-03T17:46:30;6.00;61.30
19847;DHT22;10084;50.518;8.588;2023-04-03T17:48:57;5.80;61.30
19847;DHT22;10084;50.518;8.588;2023-04-03T17:51:25;5.90;60.60
19847;DHT22;10084;50.518;8.588;2023-04-03T17:53:51;5.80;60.50
19847;DHT22;10084;50.518;8.588;2023-04-03T17:56:22;5.70;61.50
19847;DHT22;10084;50.518;8.588;2023-04-03T17:58:49;5.60;65.20
19847;DHT22;10084;50.518;8.588;2023-04-03T18:01:17;5.50;58.60
19847;DHT22;10084;50.518;8.588;2023-04-03T18:03:44;5.40;60.70
19847;DHT22;10084;50.518;8.588;2023-04-03T18:06:12;5.30;58.50
19847;DHT22;10084;50.518;8.588;2023-04-03T18:08:45;5.30;58.30
19847;DHT22;10084;50.518;8.588;2023-04-03T18:11:12;5.20;57.70
19847;DHT22;10084;50.518;8.588;2023-04-03T18:13:38;5.10;57.50
19847;DHT22;10084;50.518;8.588;2023-04-03T18:16:06;5.00;58.00
19847;DHT22;10084;50.518;8.588;2023-04-03T18:18:32;5.00;57.60
19847;DHT22;10084;50.518;8.588;2023-04-03T18:20:58;4.90;57.60
19847;DHT22;10084;50.518;8.588;2023-04-03T18:23:25;4.80;58.00
19847;DHT22;10084;50.518;8.588;2023-04-03T18:25:52;4.80;57.20
19847;DHT22;10084;50.518;8.588;2023-04-03T18:28:18;4.70;58.20
19847;DHT22;10084;50.518;8.588;2023-04-03T18:30:44;4.60;58.90
19847;DHT22;10084;50.518;8.588;2023-04-03T18:33:10;4.60;58.80
19847;DHT22;10084;50.518;8.588;2023-04-03T18:35:36;4.50;63.40
19847;DHT22;10084;50.518;8.588;2023-04-03T18:52:50;3.50;82.30
19847;DHT22;10084;50.518;8.588;2023-04-03T18:55:17;4.00;81.70
19847;DHT22;10084;50.518;8.588;2023-04-03T18:57:45;3.90;81.30
19847;DHT22;10084;50.518;8.588;2023-04-03T19:00:13;3.80;81.10
19847;DHT22;10084;50.518;8.588;2023-04-03T19:07:34;3.60;83.70
19847;DHT22;10084;50.518;8.588;2023-04-03T19:10:00;3.70;66.30
19847;DHT22;10084;50.518;8.588;2023-04-03T19:12:26;3.70;67.70
19847;DHT22;10084;50.518;8.588;2023-04-03T19:14:52;3.70;69.10
19847;DHT22;10084;50.518;8.588;2023-04-03T19:17:17;3.60;72.00
19847;DHT22;10084;50.518;8.588;2023-04-03T19:19:43;3.50;72.80
19847;DHT22;10084;50.518;8.588;2023-04-03T19:22:09;3.50;74.60
19847;DHT22;10084;50.518;8.588;2023-04-03T19:24:35;3.50;76.00
19847;DHT22;10084;50.518;8.588;2023-04-03T19:27:01;3.40;74.50
19847;DHT22;10084;50.518;8.588;2023-04-03T19:29:27;3.40;75.00
19847;DHT22;10084;50.518;8.588;2023-04-03T19:39:13;3.50;85.80
19847;DHT22;10084;50.518;8.588;2023-04-03T19:46:47;3.00;92.70
19847;DHT22;10084;50.518;8.588;2023-04-03T19:49:14;3.00;64.70
19847;DHT22;10084;50.518;8.588;2023-04-03T19:51:40;3.00;63.10
19847;DHT22;10084;50.518;8.588;2023-04-03T19:54:06;2.90;60.20
19847;DHT22;10084;50.518;8.588;2023-04-03T19:56:31;2.80;59.10
19847;DHT22;10084;50.518;8.588;2023-04-03T19:58:57;2.60;57.60
19847;DHT22;10084;50.518;8.588;2023-04-03T20:01:23;2.60;58.60
19847;DHT22;10084;50.518;8.588;2023-04-03T20:03:49;2.60;62.30
19847;DHT22;10084;50.518;8.588;2023-04-03T20:06:16;2.60;63.00
19847;DHT22;10084;50.518;8.588;2023-04-03T20:08:42;2.50;70.20
19847;DHT22;10084;50.518;8.588;2023-04-03T20:11:08;2.50;77.90
19847;DHT22;10084;50.518;8.588;2023-04-03T20:13:33;2.50;73.60
19847;DHT22;10084;50.518;8.588;2023-04-03T20:16:04;2.50;69.10
19847;DHT22;10084;50.518;8.588;2023-04-03T20:18:30;2.40;66.40
19847;DHT22;10084;50.518;8.588;2023-04-03T20:20:58;2.40;65.20
19847;DHT22;10084;50.518;8.588;2023-04-03T20:23:25;2.30;64.20
19847;DHT22;10084;50.518;8.588;2023-04-03T20:25:51;2.30;63.40
19847;DHT22;10084;50.518;8.588;2023-04-03T20:28:18;2.30;63.10
19847;DHT22;10084;50.518;8.588;2023-04-03T20:30:45;2.30;63.10
19847;DHT22;10084;50.518;8.588;2023-04-03T20:33:16;2.20;61.40
19847;DHT22;10084;50.518;8.588;2023-04-03T20:35:44;2.20;58.90
19847;DHT22;10084;50.518;8.588;2023-04-03T20:38:11;2.20;59.00
19847;DHT22;10084;50.518;8.588;2023-04-03T20:40:37;2.10;58.90
19847;DHT22;10084;50.518;8.588;2023-04-03T20:43:04;2.10;59.20
19847;DHT22;10084;50.518;8.588;2023-04-03T20:45:32;2.10;59.50
19847;DHT22;10084;50.518;8.588;2023-04-03T20:47:59;2.10;59.90
19847;DHT22;10084;50.518;8.588;2023-04-03T21:21:24;1.80;78.80
19847;DHT22;10084;50.518;8.588;2023-04-03T21:23:52;1.60;74.00
19847;DHT22;10084;50.518;8.588;2023-04-03T21:26:19;1.60;77.40
19847;DHT22;10084;50.518;8.588;2023-04-03T21:28:46;1.60;85.80
19847;DHT22;10084;50.518;8.588;2023-04-03T21:31:12;1.60;70.80
19847;DHT22;10084;50.518;8.588;2023-04-03T21:33:39;1.50;71.00
19847;DHT22;10084;50.518;8.588;2023-04-03T21:36:05;1.50;68.00
19847;DHT22;10084;50.518;8.588;2023-04-03T21:38:32;1.50;64.80
19847;DHT22;10084;50.518;8.588;2023-04-03T21:41:00;1.50;64.70
19847;DHT22;10084;50.518;8.588;2023-04-03T21:43:26;1.40;65.40
19847;DHT22;10084;50.518;8.588;2023-04-03T21:45:56;1.40;67.80
19847;DHT22;10084;50.518;8.588;2023-04-03T21:48:23;1.40;67.40
19847;DHT22;10084;50.518;8.588;2023-04-03T21:50:49;1.40;61.60
19847;DHT22;10084;50.518;8.588;2023-04-03T21:53:22;1.40;61.50
19847;DHT22;10084;50.518;8.588;2023-04-03T21:55:54;1.30;61.30
19847;DHT22;10084;50.518;8.588;2023-04-03T21:58:29;1.40;61.70
19847;DHT22;10084;50.518;8.588;2023-04-03T22:00:55;1.40;62.40
19847;DHT22;10084;50.518;8.588;2023-04-03T22:03:20;1.40;64.20
19847;DHT22;10084;50.518;8.588;2023-04-03T22:05:48;1.40;64.30
19847;DHT22;10084;50.518;8.588;2023-04-03T22:08:13;1.30;61.80
19847;DHT22;10084;50.518;8.588;2023-04-03T22:10:40;1.30;61.90
19847;DHT22;10084;50.518;8.588;2023-04-03T22:13:06;1.40;62.30
19847;DHT22;10084;50.518;8.588;2023-04-03T22:15:35;1.30;62.80
19847;DHT22;10084;50.518;8.588;2023-04-03T22:18:08;1.40;61.30
19847;DHT22;10084;50.518;8.588;2023-04-03T22:20:34;1.30;60.90
19847;DHT22;10084;50.518;8.588;2023-04-03T22:23:00;1.30;61.00
19847;DHT22;10084;50.518;8.588;2023-04-03T22:25:26;1.20;61.00
19847;DHT22;10084;50.518;8.588;2023-04-03T22:27:52;1.20;61.20
19847;DHT22;10084;50.518;8.588;2023-04-03T22:30:17;1.20;62.00
19847;DHT22;10084;50.518;8.588;2023-04-03T22:32:43;1.30;64.00
19847;DHT22;10084;50.518;8.588;2023-04-03T22:35:09;1.20;64.20
19847;DHT22;10084;50.518;8.588;2023-04-03T22:37:34;1.20;63.80
19847;DHT22;10084;50.518;8.588;2023-04-03T22:40:00;1.20;63.70